.
WxDataArchive / Data Records for 2009-01-25
2009-01-24 January 2009 2009-01-26

Data Records for Sunday, 25 January 2009

Time	Temp	Chill	HIndex	Humid	Dewpt	 Wind 	HiWind	WindDir	Rain 	Barom 
-----	----	-----	------	-----	-----	------	------	-------	-----	----- 
00:00	8.4	8.4	8.4	68	0.0	0	2	248	0.00	30.430 
00:05	8.3	8.3	8.3	68	-0.0	0	1	248	0.00	30.428 
00:10	8.3	8.3	8.3	68	-0.0	0	1	248	0.00	30.423 
00:15	8.1	8.1	8.1	67	-0.6	0	1	248	0.00	30.420 
00:20	8.1	8.1	8.1	67	-0.6	0	1	248	0.00	30.420 
00:25	8.1	8.1	8.1	67	-0.6	0	0	---	0.00	30.416 
00:30	7.9	7.9	7.9	67	-0.7	0	0	---	0.00	30.418 
00:35	7.9	7.9	7.9	68	-0.4	0	1	248	0.00	30.412 
00:40	7.9	7.9	7.9	67	-0.7	0	0	---	0.00	30.411 
00:45	7.9	7.9	7.9	68	-0.4	0	0	---	0.00	30.411 
00:50	7.9	7.9	7.9	68	-0.4	0	0	---	0.00	30.407 
00:55	7.9	7.9	7.9	68	-0.4	0	0	---	0.00	30.407 
01:00	7.7	7.7	7.7	68	-0.6	0	0	---	0.00	30.405 
01:05	7.7	7.7	7.7	68	-0.6	0	0	---	0.00	30.406 
01:10	7.7	7.7	7.7	68	-0.6	0	0	---	0.00	30.406 
01:15	7.7	7.7	7.7	67	-0.9	0	1	248	0.00	30.404 
01:20	7.7	7.7	7.7	67	-0.9	0	0	---	0.00	30.404 
01:25	7.6	7.6	7.6	67	-1.0	0	0	---	0.00	30.402 
01:30	7.4	7.4	7.4	67	-1.2	0	0	---	0.00	30.401 
01:35	7.2	7.2	7.2	67	-1.4	0	0	---	0.00	30.401 
01:40	7.0	7.0	7.0	68	-1.3	0	1	248	0.00	30.405 
01:45	7.0	7.0	7.0	69	-1.0	0	1	248	0.00	30.404 
01:50	7.0	7.0	7.0	69	-1.0	0	1	248	0.00	30.402 
01:55	6.9	6.9	6.9	69	-1.1	0	0	---	0.00	30.404 
02:00	6.9	6.9	6.9	69	-1.1	0	2	248	0.00	30.404 
02:05	6.9	6.9	6.9	69	-1.1	0	0	---	0.00	30.405 
02:10	6.7	6.7	6.7	69	-1.3	0	0	---	0.00	30.402 
02:15	6.5	6.5	6.5	69	-1.5	0	1	248	0.00	30.395 
02:20	6.3	6.3	6.3	68	-2.0	0	0	---	0.00	30.394 
02:25	6.1	6.1	6.1	69	-1.9	0	0	---	0.00	30.395 
02:30	6.0	6.0	6.0	69	-1.9	0	0	---	0.00	30.399 
02:35	5.8	5.8	5.8	69	-2.1	0	0	---	0.00	30.402 
02:40	5.8	5.8	5.8	69	-2.1	0	0	---	0.00	30.400 
02:45	5.6	5.6	5.6	69	-2.3	0	1	248	0.00	30.399 
02:50	5.4	5.4	5.4	69	-2.5	0	1	248	0.00	30.405 
02:55	5.4	5.4	5.4	70	-2.2	0	1	248	0.00	30.407 
03:00	5.4	5.4	5.4	70	-2.2	0	1	248	0.00	30.409 
03:05	5.4	5.4	5.4	70	-2.2	0	1	248	0.00	30.414 
03:10	5.4	5.4	5.4	70	-2.2	0	1	248	0.00	30.417 
03:15	5.4	5.4	5.4	69	-2.5	0	2	248	0.00	30.424 
03:20	5.2	5.2	5.2	69	-2.7	0	1	248	0.00	30.418 
03:25	5.2	5.2	5.2	69	-2.7	0	2	248	0.00	30.418 
03:30	5.0	5.0	5.0	68	-3.2	1	4	248	0.00	30.423 
03:35	5.0	5.0	5.0	68	-3.2	0	2	248	0.00	30.421 
03:40	5.0	5.0	5.0	68	-3.2	1	3	248	0.00	30.419 
03:45	5.2	5.2	5.2	68	-3.0	1	4	248	0.00	30.425 
03:50	5.2	5.2	5.2	68	-3.0	1	3	248	0.00	30.419 
03:55	5.2	5.2	5.2	68	-3.0	0	2	248	0.00	30.412 
04:00	5.2	5.2	5.2	67	-3.3	0	2	248	0.00	30.415 
04:05	5.2	5.2	5.2	67	-3.3	1	3	248	0.00	30.414 
04:10	5.2	5.2	5.2	66	-3.6	1	3	248	0.00	30.416 
04:15	5.0	5.0	5.0	66	-3.8	1	3	248	0.00	30.419 
04:20	5.0	5.0	5.0	67	-3.5	0	2	248	0.00	30.416 
04:25	5.0	5.0	5.0	67	-3.5	0	2	248	0.00	30.413 
04:30	5.0	5.0	5.0	66	-3.8	1	3	248	0.00	30.414 
04:35	5.0	5.0	5.0	66	-3.8	1	3	248	0.00	30.413 
04:40	4.8	4.8	4.8	66	-4.0	1	3	248	0.00	30.411 
04:45	4.8	4.8	4.8	66	-4.0	0	2	248	0.00	30.410 
04:50	4.8	4.8	4.8	66	-4.0	0	1	248	0.00	30.410 
04:55	4.8	4.8	4.8	66	-4.0	0	2	248	0.00	30.410 
05:00	4.8	4.8	4.8	66	-4.0	1	2	248	0.00	30.411 
05:05	4.8	4.8	4.8	66	-4.0	0	3	248	0.00	30.412 
05:10	4.8	4.8	4.8	66	-4.0	0	3	248	0.00	30.411 
05:15	4.8	4.8	4.8	66	-4.0	1	3	248	0.00	30.411 
05:20	4.7	4.7	4.7	66	-4.1	1	4	248	0.00	30.414 
05:25	4.7	4.7	4.7	65	-4.4	1	4	248	0.00	30.414 
05:30	4.7	4.7	4.7	65	-4.4	0	2	248	0.00	30.412 
05:35	4.7	4.7	4.7	65	-4.4	1	4	248	0.00	30.414 
05:40	4.8	4.8	4.8	66	-4.0	0	1	248	0.00	30.413 
05:45	4.8	4.8	4.8	66	-4.0	0	1	248	0.00	30.410 
05:50	4.8	4.8	4.8	66	-4.0	0	2	248	0.00	30.409 
05:55	4.8	4.8	4.8	66	-4.0	0	1	248	0.00	30.409 
06:00	4.8	4.8	4.8	67	-3.7	0	1	248	0.00	30.401 
06:05	4.8	4.8	4.8	66	-4.0	1	2	248	0.00	30.403 
06:10	4.7	4.7	4.7	66	-4.1	1	3	270	0.00	30.402 
06:15	4.7	4.7	4.7	66	-4.1	0	2	248	0.00	30.399 
06:20	4.7	4.7	4.7	66	-4.1	0	1	248	0.00	30.398 
06:25	4.8	4.8	4.8	66	-4.0	0	2	248	0.00	30.399 
06:30	4.7	4.7	4.7	66	-4.1	0	1	248	0.00	30.399 
06:35	4.7	4.7	4.7	66	-4.1	0	2	248	0.00	30.399 
06:40	4.5	4.5	4.5	65	-4.6	0	1	248	0.00	30.398 
06:45	4.5	4.5	4.5	65	-4.6	1	3	248	0.00	30.399 
06:50	4.5	4.5	4.5	65	-4.6	1	3	248	0.00	30.401 
06:55	4.5	4.5	4.5	65	-4.6	0	1	248	0.00	30.401 
07:00	4.5	4.5	4.5	65	-4.6	0	2	248	0.00	30.398 
07:05	4.5	4.5	4.5	65	-4.6	1	4	248	0.00	30.399 
07:10	4.7	4.7	4.7	65	-4.4	0	1	248	0.00	30.399 
07:15	4.7	4.7	4.7	65	-4.4	0	2	248	0.00	30.401 
07:20	4.8	4.8	4.8	64	-4.7	1	2	248	0.00	30.404 
07:25	4.8	4.8	4.8	63	-5.0	1	2	248	0.00	30.410 
07:30	4.8	4.8	4.8	63	-5.0	0	3	248	0.00	30.408 
07:35	5.0	5.0	5.0	62	-5.1	0	3	248	0.00	30.415 
07:40	5.0	5.0	5.0	61	-5.5	0	2	248	0.00	30.414 
07:45	5.2	5.2	5.2	61	-5.3	0	2	248	0.00	30.406 
07:50	5.2	5.2	5.2	62	-4.9	1	3	248	0.00	30.412 
07:55	5.4	5.4	5.4	61	-5.1	0	2	248	0.00	30.416 
08:00	5.6	5.6	5.6	62	-4.6	0	2	248	0.00	30.416 
08:05	5.6	5.6	5.6	61	-4.9	0	2	248	0.00	30.416 
08:10	5.6	5.6	5.6	60	-5.2	1	3	248	0.00	30.417 
08:15	5.8	5.8	5.8	60	-5.1	0	3	248	0.00	30.419 
08:20	6.0	6.0	6.0	60	-4.9	0	4	248	0.00	30.421 
08:25	6.0	6.0	6.0	60	-4.9	0	2	248	0.00	30.423 
08:30	6.1	6.1	6.1	60	-4.8	1	3	225	0.00	30.423 
08:35	6.1	6.1	6.1	61	-4.4	1	5	248	0.00	30.425 
08:40	6.3	6.3	6.3	61	-4.2	0	4	248	0.00	30.425 
08:45	6.5	6.5	6.5	62	-3.7	0	2	248	0.00	30.433 
08:50	6.7	6.7	6.7	61	-3.9	1	4	248	0.00	30.436 
08:55	6.9	6.9	6.9	62	-3.3	0	2	225	0.00	30.435 
09:00	7.0	7.0	7.0	62	-3.2	0	2	248	0.00	30.434 
09:05	7.2	7.2	7.2	62	-3.0	0	2	248	0.00	30.440 
09:10	7.4	7.4	7.4	62	-2.9	1	3	248	0.00	30.443 
09:15	7.6	7.6	7.6	62	-2.7	1	3	248	0.00	30.440 
09:20	7.6	7.6	7.6	62	-2.7	1	5	248	0.00	30.442 
09:25	7.6	7.6	7.6	62	-2.7	1	5	248	0.00	30.444 
09:30	7.6	7.6	7.6	63	-2.3	2	5	248	0.00	30.447 
09:35	7.6	7.6	7.6	63	-2.3	1	3	248	0.00	30.447 
09:40	7.7	7.7	7.7	63	-2.2	0	3	248	0.00	30.447 
09:45	7.9	7.9	7.9	63	-2.0	1	4	248	0.00	30.447 
09:50	8.1	8.1	8.1	63	-1.9	1	4	225	0.00	30.446 
09:55	8.1	8.1	8.1	63	-1.9	2	5	248	0.00	30.447 
10:00	8.3	8.3	8.3	63	-1.7	1	2	248	0.00	30.445 
10:05	8.4	8.4	8.4	63	-1.6	1	2	248	0.00	30.446 
10:10	8.8	8.8	8.8	63	-1.2	1	4	248	0.00	30.447 
10:15	9.0	9.0	9.0	62	-1.3	1	4	248	0.00	30.447 
10:20	8.8	8.8	8.8	62	-1.5	2	5	248	0.00	30.447 
10:25	9.2	9.2	9.2	62	-1.1	1	3	248	0.00	30.449 
10:30	9.2	9.2	9.2	61	-1.5	2	5	248	0.00	30.449 
10:35	9.5	9.5	9.5	61	-1.2	2	4	248	0.00	30.451 
10:40	9.5	9.5	9.5	60	-1.5	1	2	248	0.00	30.450 
10:45	9.7	9.7	9.7	61	-1.0	0	2	248	0.00	30.448 
10:50	9.9	9.9	9.9	60	-1.2	1	3	248	0.00	30.447 
10:55	10.0	10.0	10.0	60	-1.1	0	2	315	0.00	30.451 
11:00	10.2	10.2	10.2	60	-0.9	0	3	315	0.00	30.453 
11:05	10.4	10.4	10.4	59	-1.1	0	4	315	0.00	30.452 
11:10	10.5	10.5	10.5	60	-0.6	1	3	248	0.00	30.452 
11:15	10.5	10.5	10.5	59	-1.0	1	3	248	0.00	30.458 
11:20	10.7	10.7	10.7	59	-0.8	1	4	248	0.00	30.456 
11:25	11.2	11.2	11.2	59	-0.3	1	4	270	0.00	30.455 
11:30	11.6	11.6	11.6	58	-0.3	0	2	248	0.00	30.456 
11:35	11.7	11.7	11.7	58	-0.2	1	5	248	0.00	30.453 
11:40	11.6	11.6	11.6	58	-0.3	1	3	248	0.00	30.447 
11:45	11.4	11.4	11.4	58	-0.5	1	6	248	0.00	30.448 
11:50	11.4	11.4	11.4	59	-0.1	2	7	248	0.00	30.448 
11:55	11.4	11.4	11.4	59	-0.1	1	5	248	0.00	30.448 
12:00	11.6	11.6	11.6	59	0.1	1	4	248	0.00	30.444 
12:05	11.7	11.7	11.7	59	0.2	1	2	270	0.00	30.438 
12:10	12.1	12.1	12.1	59	0.6	1	4	248	0.00	30.433 
12:15	12.3	12.3	12.3	59	0.7	1	3	248	0.00	30.430 
12:20	12.4	12.4	12.4	59	0.8	1	4	248	0.00	30.430 
12:25	12.6	12.6	12.6	59	1.0	1	4	248	0.00	30.430 
12:30	12.8	12.8	12.8	59	1.2	1	3	248	0.00	30.429 
12:35	12.9	12.9	12.9	59	1.3	2	5	248	0.00	30.429 
12:40	12.9	12.9	12.9	59	1.3	2	7	248	0.00	30.425 
12:45	12.8	12.8	12.8	60	1.6	1	5	248	0.00	30.421 
12:50	12.8	12.8	12.8	60	1.6	1	5	248	0.00	30.423 
12:55	12.9	12.9	12.9	61	2.0	1	5	248	0.00	30.417 
13:00	13.3	13.3	13.3	60	2.0	1	4	270	0.00	30.414 
13:05	13.3	13.3	13.3	60	2.0	1	5	248	0.00	30.412 
13:10	13.1	13.1	13.1	59	1.5	1	4	248	0.00	30.412 
13:15	13.3	13.3	13.3	59	1.7	1	4	248	0.00	30.411 
13:20	13.5	13.5	13.5	61	2.6	1	4	270	0.00	30.407 
13:25	13.5	13.5	13.5	59	1.9	1	3	270	0.00	30.400 
13:30	13.6	13.6	13.6	58	1.6	2	5	248	0.00	30.400 
13:35	13.8	13.8	13.8	58	1.8	2	6	248	0.00	30.399 
13:40	13.8	13.8	13.8	58	1.8	1	4	270	0.00	30.399 
13:45	14.0	14.0	14.0	59	2.3	2	4	248	0.00	30.399 
13:50	14.1	14.1	14.1	58	2.1	1	4	338	0.00	30.399 
13:55	14.1	14.1	14.1	58	2.1	1	3	292	0.00	30.407 
14:00	14.4	14.4	14.4	58	2.4	1	3	248	0.00	30.400 
14:05	14.6	14.6	14.6	58	2.5	1	4	248	0.00	30.403 
14:10	14.3	14.3	14.3	56	1.5	1	4	315	0.00	30.401 
14:15	14.1	14.1	14.1	57	1.7	2	3	248	0.00	30.400 
14:20	14.1	14.1	14.1	57	1.7	1	4	292	0.00	30.401 
14:25	14.1	14.1	14.1	57	1.7	1	3	248	0.00	30.401 
14:30	14.1	14.1	14.1	56	1.3	2	6	248	0.00	30.406 
14:35	14.1	14.1	14.1	57	1.7	1	3	248	0.00	30.404 
14:40	14.0	14.0	14.0	58	2.0	0	3	270	0.00	30.408 
14:45	14.3	14.3	14.3	58	2.3	1	3	270	0.00	30.412 
14:50	14.6	14.6	14.6	56	1.8	2	5	248	0.00	30.412 
14:55	14.6	14.6	14.6	56	1.8	1	4	248	0.00	30.411 
15:00	14.4	14.4	14.4	56	1.6	1	5	248	0.00	30.412 
15:05	14.3	14.3	14.3	56	1.5	2	5	270	0.00	30.415 
15:10	14.4	14.4	14.4	56	1.6	1	5	248	0.00	30.415 
15:15	14.9	14.9	14.9	56	2.1	1	3	248	0.00	30.413 
15:20	14.9	14.9	14.9	56	2.1	1	3	225	0.00	30.414 
15:25	14.9	14.9	14.9	56	2.1	1	6	248	0.00	30.414 
15:30	15.1	15.1	15.1	56	2.3	1	2	248	0.00	30.413 
15:35	15.2	15.2	15.2	55	2.0	1	3	338	0.00	30.414 
15:40	15.2	15.2	15.2	56	2.4	1	3	315	0.00	30.414 
15:45	15.4	15.4	15.4	55	2.2	1	3	248	0.00	30.414 
15:50	15.7	15.7	15.7	55	2.4	1	4	248	0.00	30.414 
15:55	15.6	15.6	15.6	54	2.0	1	3	248	0.00	30.416 
16:00	15.6	15.6	15.6	55	2.3	1	3	248	0.00	30.416 
16:05	15.7	15.7	15.7	54	2.0	1	5	248	0.00	30.417 
16:10	15.4	15.4	15.4	55	2.2	1	4	248	0.00	30.417 
16:15	15.6	15.6	15.6	54	2.0	1	4	248	0.00	30.418 
16:20	15.6	15.6	15.6	54	2.0	1	3	248	0.00	30.423 
16:25	15.4	15.4	15.4	54	1.8	1	4	248	0.00	30.423 
16:30	15.4	15.4	15.4	55	2.2	0	2	248	0.00	30.423 
16:35	15.2	15.2	15.2	54	1.6	2	4	248	0.00	30.424 
16:40	15.1	15.1	15.1	54	1.5	2	5	248	0.00	30.424 
16:45	15.1	15.1	15.1	54	1.5	1	3	248	0.00	30.425 
16:50	14.9	14.9	14.9	54	1.3	1	4	248	0.00	30.427 
16:55	14.8	14.8	14.8	54	1.2	1	3	248	0.00	30.428 
17:00	14.8	14.8	14.8	54	1.2	1	3	248	0.00	30.431 
17:05	14.6	14.6	14.6	54	1.0	0	2	248	0.00	30.431 
17:10	14.4	14.4	14.4	54	0.8	1	3	270	0.00	30.433 
17:15	14.3	14.3	14.3	54	0.7	0	3	248	0.00	30.434 
17:20	14.1	14.1	14.1	54	0.5	1	4	248	0.00	30.435 
17:25	13.8	13.8	13.8	54	0.3	1	4	248	0.00	30.436 
17:30	13.6	13.6	13.6	54	0.1	1	3	248	0.00	30.437 
17:35	13.5	13.5	13.5	55	0.4	0	2	248	0.00	30.438 
17:40	13.3	13.3	13.3	55	0.2	1	3	248	0.00	30.439 
17:45	13.1	13.1	13.1	55	0.0	1	3	248	0.00	30.439 
17:50	12.9	12.9	12.9	56	0.2	0	1	248	0.00	30.440 
17:55	12.8	12.8	12.8	56	0.1	0	1	248	0.00	30.442 
18:00	12.4	12.4	12.4	57	0.1	0	1	248	0.00	30.440 
18:05	12.3	12.3	12.3	57	0.0	0	2	248	0.00	30.444 
18:10	12.3	12.3	12.3	57	0.0	1	3	248	0.00	30.445 
18:15	12.1	12.1	12.1	57	-0.2	1	4	248	0.00	30.443 
18:20	12.1	12.1	12.1	57	-0.2	0	2	248	0.00	30.445 
18:25	11.9	11.9	11.9	58	0.0	0	2	248	0.00	30.447 
18:30	11.7	11.7	11.7	58	-0.2	0	1	248	0.00	30.449 
18:35	11.6	11.6	11.6	58	-0.3	0	1	248	0.00	30.449 
18:40	11.6	11.6	11.6	58	-0.3	0	2	248	0.00	30.450 
18:45	11.4	11.4	11.4	58	-0.5	0	3	248	0.00	30.449 
18:50	11.4	11.4	11.4	58	-0.5	0	1	248	0.00	30.450 
18:55	11.2	11.2	11.2	58	-0.7	0	2	248	0.00	30.448 
19:00	11.1	11.1	11.1	58	-0.8	0	1	248	0.00	30.446 
19:05	11.1	11.1	11.1	58	-0.8	0	1	248	0.00	30.446 
19:10	10.9	10.9	10.9	59	-0.6	0	1	248	0.00	30.447 
19:15	10.7	10.7	10.7	59	-0.8	0	1	248	0.00	30.449 
19:20	10.7	10.7	10.7	59	-0.8	0	1	248	0.00	30.446 
19:25	10.5	10.5	10.5	60	-0.6	0	0	---	0.00	30.446 
19:30	10.2	10.2	10.2	60	-0.9	0	0	---	0.00	30.443 
19:35	10.0	10.0	10.0	60	-1.1	0	1	248	0.00	30.442 
19:40	9.9	9.9	9.9	61	-0.8	0	0	---	0.00	30.442 
19:45	9.9	9.9	9.9	61	-0.8	0	0	---	0.00	30.438 
19:50	9.7	9.7	9.7	61	-1.0	0	0	---	0.00	30.441 
19:55	9.5	9.5	9.5	61	-1.2	0	1	248	0.00	30.446 
20:00	9.5	9.5	9.5	61	-1.2	0	1	248	0.00	30.447 
20:05	9.5	9.5	9.5	61	-1.2	0	1	248	0.00	30.448 
20:10	9.3	9.3	9.3	61	-1.4	0	1	248	0.00	30.448 
20:15	9.3	9.3	9.3	62	-1.0	0	0	---	0.00	30.444 
20:20	9.2	9.2	9.2	62	-1.1	0	1	248	0.00	30.445 
20:25	9.0	9.0	9.0	62	-1.3	0	1	248	0.00	30.446 
20:30	9.0	9.0	9.0	62	-1.3	0	0	---	0.00	30.449 
20:35	8.8	8.8	8.8	62	-1.5	0	1	248	0.00	30.448 
20:40	8.8	8.8	8.8	62	-1.5	0	0	---	0.00	30.444 
20:45	8.6	8.6	8.6	63	-1.4	0	0	---	0.00	30.445 
20:50	8.4	8.4	8.4	63	-1.6	0	0	---	0.00	30.445 
20:55	8.3	8.3	8.3	63	-1.7	0	0	---	0.00	30.449 
21:00	8.1	8.1	8.1	64	-1.5	0	0	---	0.00	30.446 
21:05	7.9	7.9	7.9	64	-1.7	0	0	---	0.00	30.445 
21:10	7.6	7.6	7.6	64	-2.0	0	0	---	0.00	30.446 
21:15	7.6	7.6	7.6	64	-2.0	0	0	---	0.00	30.448 
21:20	7.4	7.4	7.4	64	-2.2	0	0	---	0.00	30.450 
21:25	7.6	7.6	7.6	64	-2.0	0	0	---	0.00	30.450 
21:30	7.6	7.6	7.6	63	-2.3	0	0	---	0.00	30.450 
21:35	7.6	7.6	7.6	63	-2.3	0	1	248	0.00	30.451 
21:40	7.6	7.6	7.6	63	-2.3	0	0	---	0.00	30.452 
21:45	7.4	7.4	7.4	63	-2.5	0	0	---	0.00	30.456 
21:50	7.4	7.4	7.4	63	-2.5	0	1	248	0.00	30.457 
21:55	7.2	7.2	7.2	63	-2.7	0	0	---	0.00	30.457 
22:00	7.0	7.0	7.0	63	-2.9	0	0	---	0.00	30.458 
22:05	6.9	6.9	6.9	64	-2.7	0	0	---	0.00	30.456 
22:10	6.7	6.7	6.7	65	-2.5	0	0	---	0.00	30.454 
22:15	6.9	6.9	6.9	65	-2.3	0	1	248	0.00	30.454 
22:20	6.9	6.9	6.9	65	-2.3	0	0	---	0.00	30.454 
22:25	7.0	7.0	7.0	65	-2.2	0	0	---	0.00	30.452 
22:30	7.0	7.0	7.0	65	-2.2	0	0	---	0.00	30.452 
22:35	7.0	7.0	7.0	65	-2.2	0	0	---	0.00	30.451 
22:40	6.9	6.9	6.9	65	-2.3	0	0	---	0.00	30.451 
22:45	6.9	6.9	6.9	65	-2.3	0	0	---	0.00	30.450 
22:50	6.7	6.7	6.7	65	-2.5	0	0	---	0.00	30.450 
22:55	6.5	6.5	6.5	65	-2.7	0	0	---	0.00	30.449 
23:00	6.7	6.7	6.7	66	-2.2	0	0	---	0.00	30.450 
23:05	6.9	6.9	6.9	67	-1.7	0	0	---	0.00	30.447 
23:10	6.9	6.9	6.9	67	-1.7	0	0	---	0.00	30.445 
23:15	7.0	7.0	7.0	68	-1.3	0	0	---	0.00	30.446 
23:20	7.2	7.2	7.2	68	-1.1	0	0	---	0.00	30.445 
23:25	7.4	7.4	7.4	68	-0.9	0	0	---	0.00	30.444 
23:30	7.7	7.7	7.7	67	-0.9	0	1	248	0.00	30.447 
23:35	7.9	7.9	7.9	67	-0.7	0	0	---	0.00	30.448 
23:40	8.1	8.1	8.1	66	-0.9	0	1	248	0.00	30.448 
23:45	8.1	8.1	8.1	66	-0.9	0	0	---	0.00	30.446 
23:50	8.3	8.3	8.3	65	-1.0	0	0	---	0.00	30.443 
23:55	8.3	8.3	8.3	65	-1.0	0	0	---	0.00	30.444 

CoCoRaHS
IN-AL-39
A2 Web Hosting
Creative Commons License
GoDaddy
search engine by freefind advanced

loaded 2018-11-21 01:25:12 • last modified 2010-11-18 10:43:29
Privacy PolicyDisclaimer
• wx.awcolley.com is powered by PmWiki v.2002016 •
• all content (unless otherwise noted) © 2018 A W Colley